Arviat Airport

CYEK · 加拿大

罗盘
风向 的 风向 070° Arviat Airport 15/33
风: 6 kt, 2 beaufort

1 kt

6 kt
改变
0 ft 1.000 2.000 3.000 4.000 5.000
没有云
METAR CYEK 262100Z AUTO 07006KT 9SM CLR 06/M03 A2998 RMK SLP155

METAR Arviat Airport - CYEK/YEK

该字段位于加拿大中。 该机场位于纬度61,09420和经度-94,07080。 该机场有一条跑道: 15/33. 本场的ICAO机场代码为CYEK。 该机场的IATA代码为YEK。 机场在Winnipeg FIR中。

该航空气象观测是针对Arviat Airport在2024年5月26日 16:00, 当地时间进行的。

机场观察

风向为070°,速度为6 kt。

可见度为9 mi。

有没有云。 没有观察到天花板。

温度为6 °C,阵风为2 °C。 露点为-3 °C,相对湿度为53%。 海平面上的气压为29,98 inHg (QNH)。

白天

今天,太阳从04:02升起,在22:23降落。 这适用于Arviat Airport,世界夏令时可能有所不同。 当地时间与世界标准时间之间的时差为-5 小时。 夏令时目前正在进行中。

公司介绍

我们没有关于这个机场的公司信息。

体会

到Vliegles.nl去找飞行课程,跳伞和其他飞行体验。 浏览页面,了解Arviat Airport附近所有可用的活动。 你也可以使用搜索功能来寻找你所在地附近的特定飞行课程、跳伞或其他飞行体验。

跑道

Id 标题 侧风 逆风 侧风 %
15/33 149°-329° 6 kt 1 kt 98 %

逆风成分最大的方向会被突出显示,并用于横风计算。 这并不一定意味着这个方向在使用。

乌云

- CLR 没有云

温度 & 天气

温度 6 °C
露点 -3 °C
相对湿度 53%
风寒 2 °C
Kp-index 0 (0-9)

评论

SLP155海平面压力为29,99 inHg (29,99 inHg)

白天

日出
04:02
中午
13:13
日落
22:23 (5:53)

小工具

你想在你的网站上有一个关于Arviat Airport的当前航空天气(METAR)的小部件吗?

显示HTML代码
报告变更